Costa Luminosa — ICGU — position and weather

sailwx.info

Track history (hours):
 
Tides and Currents Weather Stations Pressure Air Temp Water Temp Dewpoint Dewpoint Depression Visibility Wind Speed Wind Dir Waves Ship Positions

Costa Luminosa

Last reported at 2016-May-25 18:33 UTC. Time now 2016-May-25 18:52 UTC.
Position N 60°02' E 029°03'.

; draft 8.1 m.

Type: Passenger vessel. MMSI: 247257900.

Date/timePositionNaut miles runAvg speedWind from/ knotsBaromVisibWave heightAir tempDewpointWater temp
2016-May-25 18:33N 60°02' E 029°03'1313.3
2016-May-25 17:33N 60°01' E 029°30'1111.1
2016-May-25 16:33N 59°57' E 029°51'10 9.8
2016-May-25 15:33N 59°57' E 030°10'1 0.6
2016-May-25 14:31N 59°57' E 030°11'0 0.0
2016-May-25 13:31N 59°57' E 030°11'0 0.0
2016-May-25 12:31N 59°57' E 030°11'0 0.0
2016-May-25 11:31N 59°57' E 030°11'0 0.0
2016-May-25 10:31N 59°57' E 030°11'0 0.0
2016-May-25 09:31N 59°57' E 030°11'0 0.0
2016-May-25 08:31N 59°57' E 030°11'0 0.0
2016-May-25 07:31N 59°57' E 030°11'0 0.0
2016-May-25 06:31N 59°57' E 030°11'0 0.0
2016-May-25 05:31N 59°57' E 030°11'0 0.0
2016-May-25 04:31N 59°57' E 030°11'0 0.0
2016-May-25 03:25N 59°57' E 030°11'0 0.0
2016-May-25 02:31N 59°57' E 030°11'0 0.0
2016-May-25 01:31N 59°57' E 030°11'0 0.0
2016-May-25 00:31N 59°57' E 030°11'0 0.0
2016-May-24 23:31N 59°57' E 030°11'0 0.0
2016-May-24 22:31N 59°57' E 030°11'0 0.0
2016-May-24 21:31N 59°57' E 030°11'0 0.0
2016-May-24 20:31N 59°57' E 030°11'0 0.0
2016-May-24 19:31N 59°57' E 030°11'0 0.0
2016-May-24 18:31N 59°57' E 030°11'0 0.0
2016-May-24 17:31N 59°57' E 030°11'0 0.0
2016-May-24 16:31N 59°57' E 030°11'0 0.0
2016-May-24 15:28N 59°57' E 030°11'0 0.0
2016-May-24 14:31N 59°57' E 030°11'0 0.0
2016-May-24 13:31N 59°57' E 030°11'0 0.0
2016-May-24 12:31N 59°57' E 030°11'0 0.0
2016-May-24 11:34N 59°57' E 030°11'0 0.0
2016-May-24 10:31N 59°57' E 030°11'0 0.0
2016-May-24 09:31N 59°57' E 030°11'0 0.0
2016-May-24 08:31N 59°57' E 030°11'0 0.0
2016-May-24 07:31N 59°57' E 030°11'0 0.0
2016-May-24 06:31N 59°57' E 030°11'0 0.0
2016-May-24 05:31N 59°57' E 030°11'0 0.0
2016-May-24 04:31N 59°57' E 030°11'0 0.1
2016-May-24 03:33N 59°57' E 030°11'9 9.1
2016-May-24 02:33N 59°57' E 029°53'1111.1
2016-May-24 01:33N 60°01' E 029°33'1313.4
2016-May-24 00:34N 60°02' E 029°06'1616.2
2016-May-23 23:33N 60°02' E 028°33'1615.6
2016-May-23 22:33N 60°09' E 028°05'1515.1
2016-May-23 21:33N 60°08' E 027°35'1615.9
2016-May-23 20:33N 59°59' E 027°08'1515.3
2016-May-23 19:33N 59°59' E 026°37'63 3.5
2016-May-23 01:33N 59°45' E 024°36'1312.7
2016-May-23 00:32N 59°41' E 024°11'1212.5
2016-May-22 23:33N 59°35' E 023°50'1212.3
2016-May-22 22:33N 59°33' E 023°26'1313.4
2016-May-22 21:33N 59°29' E 023°01'1313.4
2016-May-22 20:33N 59°24' E 022°36'1313.0
2016-May-22 19:34N 59°23' E 022°11'1513.9
2016-May-22 18:28N 59°24' E 021°41'1415.6
2016-May-22 17:33N 59°25' E 021°13'8511.5
2016-May-22 10:08N 59°27' E 018°25'5 6.0
2016-May-22 09:17N 59°22' E 018°23'7 9.8
2016-May-22 08:32N 59°21' E 018°09'0 0.4
2016-May-22 07:28N 59°21' E 018°08'0 0.0
2016-May-22 06:22N 59°21' E 018°08'0 0.0
2016-May-22 05:28N 59°21' E 018°08'0 0.0
2016-May-22 04:28N 59°21' E 018°08'0 0.0
2016-May-22 03:28N 59°21' E 018°08'0 0.0
2016-May-22 02:16N 59°21' E 018°08'0 0.0
2016-May-22 01:28N 59°21' E 018°08'0 0.0
2016-May-22 00:28N 59°21' E 018°08'0 0.0
2016-May-21 23:31N 59°21' E 018°08'0 0.0
2016-May-21 22:28N 59°21' E 018°08'0 0.0
2016-May-21 21:28N 59°21' E 018°08'0 0.0
2016-May-21 20:28N 59°21' E 018°08'0 0.0
2016-May-21 19:22N 59°21' E 018°08'0 0.0
2016-May-21 18:28N 59°21' E 018°08'0 0.0
2016-May-21 17:28N 59°21' E 018°08'0 0.0
2016-May-21 16:10N 59°21' E 018°08'0 0.0
2016-May-21 15:28N 59°21' E 018°08'0 0.0
2016-May-21 14:28N 59°21' E 018°08'0 0.0
2016-May-21 13:28N 59°21' E 018°08'0 0.0
2016-May-21 12:28N 59°21' E 018°08'0 0.0
2016-May-21 11:28N 59°21' E 018°08'0 0.0
2016-May-21 10:22N 59°21' E 018°08'0 0.0
2016-May-21 09:22N 59°21' E 018°08'0 0.0
2016-May-21 08:28N 59°21' E 018°08'0 0.0
2016-May-21 07:28N 59°21' E 018°08'0 0.0
2016-May-21 06:28N 59°21' E 018°08'0 0.0
2016-May-21 05:28N 59°21' E 018°08'0 0.0
2016-May-21 04:28N 59°21' E 018°08'0 0.0
2016-May-21 03:28N 59°21' E 018°08'0 0.0
2016-May-21 02:28N 59°21' E 018°08'0 0.0
2016-May-21 01:28N 59°21' E 018°08'0 0.0
2016-May-21 00:28N 59°21' E 018°08'0 0.0
2016-May-20 23:28N 59°21' E 018°08'0 0.0
2016-May-20 22:28N 59°21' E 018°08'0 0.0
2016-May-20 21:28N 59°21' E 018°08'0 0.0
2016-May-20 20:31N 59°21' E 018°08'0 0.0
2016-May-20 19:31N 59°21' E 018°08'0 0.0
2016-May-20 18:31N 59°21' E 018°08'0 0.0
2016-May-20 17:31N 59°21' E 018°08'0 0.0
2016-May-20 16:31N 59°21' E 018°08'0 0.0
2016-May-20 15:28N 59°21' E 018°08'0 0.0
2016-May-20 14:31N 59°21' E 018°08'0 0.0
2016-May-20 13:28N 59°21' E 018°08'0 0.0
2016-May-20 12:28N 59°21' E 018°08'0 0.0
2016-May-20 11:28N 59°21' E 018°08'0 0.0
2016-May-20 10:31N 59°21' E 018°08'0 0.0
2016-May-20 09:31N 59°21' E 018°08'0 0.0
2016-May-20 08:28N 59°21' E 018°08'0 0.0
2016-May-20 07:31N 59°21' E 018°08'0 0.1
2016-May-20 06:33N 59°21' E 018°08'8 8.2
2016-May-20 05:33N 59°22' E 018°24'7711.0
2016-May-19 22:33N 59°33' E 020°55'1616.1
2016-May-19 21:32N 59°29' E 021°25'1615.9
2016-May-19 20:33N 59°27' E 021°56'1515.2
2016-May-19 19:33N 59°28' E 022°26'1515.4
2016-May-19 18:33N 59°33' E 022°55'1615.6
2016-May-19 17:33N 59°32' E 023°26'1615.6
2016-May-19 16:33N 59°31' E 023°56'1715.7
2016-May-19 15:30N 59°30' E 024°29'9 9.7
2016-May-19 14:33N 59°27' E 024°46'0 0.4
2016-May-19 13:23N 59°27' E 024°46'0 0.0
2016-May-19 12:17N 59°27' E 024°46'0 0.0
2016-May-19 11:29N 59°27' E 024°46'0 0.0
2016-May-19 10:29N 59°27' E 024°46'0 0.0
2016-May-19 09:29N 59°27' E 024°46'0 0.0
2016-May-19 08:23N 59°27' E 024°46'0 0.0
2016-May-19 07:29N 59°27' E 024°46'0 0.0
2016-May-19 06:29N 59°27' E 024°46'0 0.2
2016-May-19 05:33N 59°27' E 024°46'2211.1
2016-May-19 03:33N 59°49' E 024°52'1412.8
2016-May-19 02:28N 59°53' E 025°19'1313.3
2016-May-19 01:31N 59°55' E 025°44'1515.2
2016-May-19 00:32N 59°59' E 026°13'1515.7
2016-May-18 23:33N 60°01' E 026°43'1514.9
2016-May-18 22:34N 60°02' E 027°13'1615.7
2016-May-18 21:34N 60°10' E 027°39'1514.7
2016-May-18 20:34N 60°10' E 028°09'1515.3
2016-May-18 19:33N 60°03' E 028°37'1615.8
2016-May-18 18:33N 60°02' E 029°08'1212.0
2016-May-18 17:33N 60°01' E 029°32'1110.5
2016-May-18 16:33N 59°57' E 029°52'9 9.3
2016-May-18 15:33N 59°57' E 030°10'0 0.5
2016-May-18 14:32N 59°57' E 030°11'0 0.0
2016-May-18 13:32N 59°57' E 030°11'0 0.0
2016-May-18 12:32N 59°57' E 030°11'0 0.0
2016-May-18 11:32N 59°57' E 030°11'0 0.0
2016-May-18 10:29N 59°57' E 030°11'0 0.0
2016-May-18 09:32N 59°57' E 030°11'0 0.0
2016-May-18 08:32N 59°57' E 030°11'0 0.0
2016-May-18 07:32N 59°57' E 030°11'0 0.0
2016-May-18 06:32N 59°57' E 030°11'0 0.0
2016-May-18 05:32N 59°57' E 030°11'0 0.0
2016-May-18 04:32N 59°57' E 030°11'0 0.0
2016-May-18 03:32N 59°57' E 030°11'0 0.0
2016-May-18 02:32N 59°57' E 030°11'0 0.0
2016-May-18 01:32N 59°57' E 030°11'0 0.0
2016-May-18 00:32N 59°57' E 030°11'0 0.0
2016-May-17 23:32N 59°57' E 030°11'0 0.0
2016-May-17 22:32N 59°57' E 030°11'0 0.0
2016-May-17 21:32N 59°57' E 030°11'0 0.0
2016-May-17 20:32N 59°57' E 030°11'0 0.0
2016-May-17 19:32N 59°57' E 030°11'0 0.0
2016-May-17 18:32N 59°57' E 030°11'0 0.0
2016-May-17 17:32N 59°57' E 030°11'0 0.0
2016-May-17 16:29N 59°57' E 030°11'0 0.0
2016-May-17 15:32N 59°57' E 030°11'0 0.0
2016-May-17 14:32N 59°57' E 030°11'0 0.0
2016-May-17 13:32N 59°57' E 030°11'0 0.0
2016-May-17 12:32N 59°57' E 030°11'0 0.0
2016-May-17 11:32N 59°57' E 030°11'0 0.0
2016-May-17 10:32N 59°57' E 030°11'0 0.0
2016-May-17 09:32N 59°57' E 030°11'0 0.0
2016-May-17 08:32N 59°57' E 030°11'0 0.0
2016-May-17 07:32N 59°57' E 030°11'0 0.0
2016-May-17 06:32N 59°57' E 030°11'0 0.0
2016-May-17 05:29N 59°57' E 030°11'0 0.0
2016-May-17 04:32N 59°57' E 030°11'0 0.4
2016-May-17 03:33N 59°57' E 030°10'10 9.5
2016-May-17 02:33N 59°57' E 029°51'1111.2
2016-May-17 01:33N 60°01' E 029°31'1313.4
2016-May-17 00:33N 60°02' E 029°04'1616.4
2016-May-16 23:33N 60°02' E 028°31'1615.6
2016-May-16 22:33N 60°09' E 028°03'1515.2
2016-May-16 21:34N 60°07' E 027°33'1616.4
2016-May-16 20:33N 59°58' E 027°05'1615.8
2016-May-16 19:34N 59°59' E 026°33'1615.9
2016-May-16 18:33N 59°55' E 026°03'1615.7
2016-May-16 17:33N 59°51' E 025°32'32 2.0
2016-May-16 01:30N 59°44' E 024°30'1110.5
2016-May-16 00:29N 59°41' E 024°10'1010.5
2016-May-15 23:33N 59°38' E 023°51'1010.6
2016-May-15 22:34N 59°34' E 023°32'1110.8
2016-May-15 21:34N 59°31' E 023°12'1110.7
2016-May-15 20:33N 59°27' E 022°52'  
Track history (hours):
 
Tides and Currents Weather Stations Pressure Air Temp Water Temp Dewpoint Dewpoint Depression Visibility Wind Speed Wind Dir Waves Ship Positions

Costa Luminosa

Last reported at 2016-May-25 18:33 UTC. Time now 2016-May-25 18:52 UTC.
Position N 60°02' E 029°03'.

; draft 8.1 m.

Type: Passenger vessel. MMSI: 247257900.

Date/timePositionNaut miles runAvg speedWind from/ knotsBaromVisibWave heightAir tempDewpointWater temp
2016-May-25 18:33N 60°02' E 029°03'1313.3
2016-May-25 17:33N 60°01' E 029°30'1111.1
2016-May-25 16:33N 59°57' E 029°51'10 9.8
2016-May-25 15:33N 59°57' E 030°10'1 0.6
2016-May-25 14:31N 59°57' E 030°11'0 0.0
2016-May-25 13:31N 59°57' E 030°11'0 0.0
2016-May-25 12:31N 59°57' E 030°11'0 0.0
2016-May-25 11:31N 59°57' E 030°11'0 0.0
2016-May-25 10:31N 59°57' E 030°11'0 0.0
2016-May-25 09:31N 59°57' E 030°11'0 0.0
2016-May-25 08:31N 59°57' E 030°11'0 0.0
2016-May-25 07:31N 59°57' E 030°11'0 0.0
2016-May-25 06:31N 59°57' E 030°11'0 0.0
2016-May-25 05:31N 59°57' E 030°11'0 0.0
2016-May-25 04:31N 59°57' E 030°11'0 0.0
2016-May-25 03:25N 59°57' E 030°11'0 0.0
2016-May-25 02:31N 59°57' E 030°11'0 0.0
2016-May-25 01:31N 59°57' E 030°11'0 0.0
2016-May-25 00:31N 59°57' E 030°11'0 0.0
2016-May-24 23:31N 59°57' E 030°11'0 0.0
2016-May-24 22:31N 59°57' E 030°11'0 0.0
2016-May-24 21:31N 59°57' E 030°11'0 0.0
2016-May-24 20:31N 59°57' E 030°11'0 0.0
2016-May-24 19:31N 59°57' E 030°11'0 0.0
2016-May-24 18:31N 59°57' E 030°11'0 0.0
2016-May-24 17:31N 59°57' E 030°11'0 0.0
2016-May-24 16:31N 59°57' E 030°11'0 0.0
2016-May-24 15:28N 59°57' E 030°11'0 0.0
2016-May-24 14:31N 59°57' E 030°11'0 0.0
2016-May-24 13:31N 59°57' E 030°11'0 0.0
2016-May-24 12:31N 59°57' E 030°11'0 0.0
2016-May-24 11:34N 59°57' E 030°11'0 0.0
2016-May-24 10:31N 59°57' E 030°11'0 0.0
2016-May-24 09:31N 59°57' E 030°11'0 0.0
2016-May-24 08:31N 59°57' E 030°11'0 0.0
2016-May-24 07:31N 59°57' E 030°11'0 0.0
2016-May-24 06:31N 59°57' E 030°11'0 0.0
2016-May-24 05:31N 59°57' E 030°11'0 0.0
2016-May-24 04:31N 59°57' E 030°11'0 0.1
2016-May-24 03:33N 59°57' E 030°11'9 9.1
2016-May-24 02:33N 59°57' E 029°53'1111.1
2016-May-24 01:33N 60°01' E 029°33'1313.4
2016-May-24 00:34N 60°02' E 029°06'1616.2
2016-May-23 23:33N 60°02' E 028°33'1615.6
2016-May-23 22:33N 60°09' E 028°05'1515.1
2016-May-23 21:33N 60°08' E 027°35'1615.9
2016-May-23 20:33N 59°59' E 027°08'1515.3
2016-May-23 19:33N 59°59' E 026°37'63 3.5
2016-May-23 01:33N 59°45' E 024°36'1312.7
2016-May-23 00:32N 59°41' E 024°11'1212.5
2016-May-22 23:33N 59°35' E 023°50'1212.3
2016-May-22 22:33N 59°33' E 023°26'1313.4
2016-May-22 21:33N 59°29' E 023°01'1313.4
2016-May-22 20:33N 59°24' E 022°36'1313.0
2016-May-22 19:34N 59°23' E 022°11'1513.9
2016-May-22 18:28N 59°24' E 021°41'1415.6
2016-May-22 17:33N 59°25' E 021°13'8511.5
2016-May-22 10:08N 59°27' E 018°25'5 6.0
2016-May-22 09:17N 59°22' E 018°23'7 9.8
2016-May-22 08:32N 59°21' E 018°09'0 0.4
2016-May-22 07:28N 59°21' E 018°08'0 0.0
2016-May-22 06:22N 59°21' E 018°08'0 0.0
2016-May-22 05:28N 59°21' E 018°08'0 0.0
2016-May-22 04:28N 59°21' E 018°08'0 0.0
2016-May-22 03:28N 59°21' E 018°08'0 0.0
2016-May-22 02:16N 59°21' E 018°08'0 0.0
2016-May-22 01:28N 59°21' E 018°08'0 0.0
2016-May-22 00:28N 59°21' E 018°08'0 0.0
2016-May-21 23:31N 59°21' E 018°08'0 0.0
2016-May-21 22:28N 59°21' E 018°08'0 0.0
2016-May-21 21:28N 59°21' E 018°08'0 0.0
2016-May-21 20:28N 59°21' E 018°08'0 0.0
2016-May-21 19:22N 59°21' E 018°08'0 0.0
2016-May-21 18:28N 59°21' E 018°08'0 0.0
2016-May-21 17:28N 59°21' E 018°08'0 0.0
2016-May-21 16:10N 59°21' E 018°08'0 0.0
2016-May-21 15:28N 59°21' E 018°08'0 0.0
2016-May-21 14:28N 59°21' E 018°08'0 0.0
2016-May-21 13:28N 59°21' E 018°08'0 0.0
2016-May-21 12:28N 59°21' E 018°08'0 0.0
2016-May-21 11:28N 59°21' E 018°08'0 0.0
2016-May-21 10:22N 59°21' E 018°08'0 0.0
2016-May-21 09:22N 59°21' E 018°08'0 0.0
2016-May-21 08:28N 59°21' E 018°08'0 0.0
2016-May-21 07:28N 59°21' E 018°08'0 0.0
2016-May-21 06:28N 59°21' E 018°08'0 0.0
2016-May-21 05:28N 59°21' E 018°08'0 0.0
2016-May-21 04:28N 59°21' E 018°08'0 0.0
2016-May-21 03:28N 59°21' E 018°08'0 0.0
2016-May-21 02:28N 59°21' E 018°08'0 0.0
2016-May-21 01:28N 59°21' E 018°08'0 0.0
2016-May-21 00:28N 59°21' E 018°08'0 0.0
2016-May-20 23:28N 59°21' E 018°08'0 0.0
2016-May-20 22:28N 59°21' E 018°08'0 0.0
2016-May-20 21:28N 59°21' E 018°08'0 0.0
2016-May-20 20:31N 59°21' E 018°08'0 0.0
2016-May-20 19:31N 59°21' E 018°08'0 0.0
2016-May-20 18:31N 59°21' E 018°08'0 0.0
2016-May-20 17:31N 59°21' E 018°08'0 0.0
2016-May-20 16:31N 59°21' E 018°08'0 0.0
2016-May-20 15:28N 59°21' E 018°08'0 0.0
2016-May-20 14:31N 59°21' E 018°08'0 0.0
2016-May-20 13:28N 59°21' E 018°08'0 0.0
2016-May-20 12:28N 59°21' E 018°08'0 0.0
2016-May-20 11:28N 59°21' E 018°08'0 0.0
2016-May-20 10:31N 59°21' E 018°08'0 0.0
2016-May-20 09:31N 59°21' E 018°08'0 0.0
2016-May-20 08:28N 59°21' E 018°08'0 0.0
2016-May-20 07:31N 59°21' E 018°08'0 0.1
2016-May-20 06:33N 59°21' E 018°08'8 8.2
2016-May-20 05:33N 59°22' E 018°24'7711.0
2016-May-19 22:33N 59°33' E 020°55'1616.1
2016-May-19 21:32N 59°29' E 021°25'1615.9
2016-May-19 20:33N 59°27' E 021°56'1515.2
2016-May-19 19:33N 59°28' E 022°26'1515.4
2016-May-19 18:33N 59°33' E 022°55'1615.6
2016-May-19 17:33N 59°32' E 023°26'1615.6
2016-May-19 16:33N 59°31' E 023°56'1715.7
2016-May-19 15:30N 59°30' E 024°29'9 9.7
2016-May-19 14:33N 59°27' E 024°46'0 0.4
2016-May-19 13:23N 59°27' E 024°46'0 0.0
2016-May-19 12:17N 59°27' E 024°46'0 0.0
2016-May-19 11:29N 59°27' E 024°46'0 0.0
2016-May-19 10:29N 59°27' E 024°46'0 0.0
2016-May-19 09:29N 59°27' E 024°46'0 0.0
2016-May-19 08:23N 59°27' E 024°46'0 0.0
2016-May-19 07:29N 59°27' E 024°46'0 0.0
2016-May-19 06:29N 59°27' E 024°46'0 0.2
2016-May-19 05:33N 59°27' E 024°46'2211.1
2016-May-19 03:33N 59°49' E 024°52'1412.8
2016-May-19 02:28N 59°53' E 025°19'1313.3
2016-May-19 01:31N 59°55' E 025°44'1515.2
2016-May-19 00:32N 59°59' E 026°13'1515.7
2016-May-18 23:33N 60°01' E 026°43'1514.9
2016-May-18 22:34N 60°02' E 027°13'1615.7
2016-May-18 21:34N 60°10' E 027°39'1514.7
2016-May-18 20:34N 60°10' E 028°09'1515.3
2016-May-18 19:33N 60°03' E 028°37'1615.8
2016-May-18 18:33N 60°02' E 029°08'1212.0
2016-May-18 17:33N 60°01' E 029°32'1110.5
2016-May-18 16:33N 59°57' E 029°52'9 9.3
2016-May-18 15:33N 59°57' E 030°10'0 0.5
2016-May-18 14:32N 59°57' E 030°11'0 0.0
2016-May-18 13:32N 59°57' E 030°11'0 0.0
2016-May-18 12:32N 59°57' E 030°11'0 0.0
2016-May-18 11:32N 59°57' E 030°11'0 0.0
2016-May-18 10:29N 59°57' E 030°11'0 0.0
2016-May-18 09:32N 59°57' E 030°11'0 0.0
2016-May-18 08:32N 59°57' E 030°11'0 0.0
2016-May-18 07:32N 59°57' E 030°11'0 0.0
2016-May-18 06:32N 59°57' E 030°11'0 0.0
2016-May-18 05:32N 59°57' E 030°11'0 0.0
2016-May-18 04:32N 59°57' E 030°11'0 0.0
2016-May-18 03:32N 59°57' E 030°11'0 0.0
2016-May-18 02:32N 59°57' E 030°11'0 0.0
2016-May-18 01:32N 59°57' E 030°11'0 0.0
2016-May-18 00:32N 59°57' E 030°11'0 0.0
2016-May-17 23:32N 59°57' E 030°11'0 0.0
2016-May-17 22:32N 59°57' E 030°11'0 0.0
2016-May-17 21:32N 59°57' E 030°11'0 0.0
2016-May-17 20:32N 59°57' E 030°11'0 0.0
2016-May-17 19:32N 59°57' E 030°11'0 0.0
2016-May-17 18:32N 59°57' E 030°11'0 0.0
2016-May-17 17:32N 59°57' E 030°11'0 0.0
2016-May-17 16:29N 59°57' E 030°11'0 0.0
2016-May-17 15:32N 59°57' E 030°11'0 0.0
2016-May-17 14:32N 59°57' E 030°11'0 0.0
2016-May-17 13:32N 59°57' E 030°11'0 0.0
2016-May-17 12:32N 59°57' E 030°11'0 0.0
2016-May-17 11:32N 59°57' E 030°11'0 0.0
2016-May-17 10:32N 59°57' E 030°11'0 0.0
2016-May-17 09:32N 59°57' E 030°11'0 0.0
2016-May-17 08:32N 59°57' E 030°11'0 0.0
2016-May-17 07:32N 59°57' E 030°11'0 0.0
2016-May-17 06:32N 59°57' E 030°11'0 0.0
2016-May-17 05:29N 59°57' E 030°11'0 0.0
2016-May-17 04:32N 59°57' E 030°11'0 0.4
2016-May-17 03:33N 59°57' E 030°10'10 9.5
2016-May-17 02:33N 59°57' E 029°51'1111.2
2016-May-17 01:33N 60°01' E 029°31'1313.4
2016-May-17 00:33N 60°02' E 029°04'1616.4
2016-May-16 23:33N 60°02' E 028°31'1615.6
2016-May-16 22:33N 60°09' E 028°03'1515.2
2016-May-16 21:34N 60°07' E 027°33'1616.4
2016-May-16 20:33N 59°58' E 027°05'1615.8
2016-May-16 19:34N 59°59' E 026°33'1615.9
2016-May-16 18:33N 59°55' E 026°03'1615.7
2016-May-16 17:33N 59°51' E 025°32'32 2.0
2016-May-16 01:30N 59°44' E 024°30'1110.5
2016-May-16 00:29N 59°41' E 024°10'1010.5
2016-May-15 23:33N 59°38' E 023°51'1010.6
2016-May-15 22:34N 59°34' E 023°32'1110.8
2016-May-15 21:34N 59°31' E 023°12'1110.7
2016-May-15 20:33N 59°27' E 022°52'  

Dump ship's entire track history